DLH36E EDDF-LFPG
Flight info
| Callsign | DLH36E |
|---|---|
| Flight time | N/A |
| Altitude | 24000 |
| Route | SOBRA2L/18 SOBRA Y180 DIK UN857 TOLVU/N0367F230 DCT RAPOR DCT VEDUS |
| Aircraft | A319/M-SDE2E3FGIJ1LORWXYZ/HB1 |
Departure
| Time | N/A |
|---|---|
| Airport | Frankfurt Main Airport (EDDF) |
Arrival
| Time | 2026-05-03 21:58 |
|---|---|
| Airport | Charles de Gaulle International Airport (LFPG) |
| Time | Latitude | Longitude | Altitude | Speed | Heading |
|---|---|---|---|---|---|
| 2026-05-03 21:27 | 49.69099 | 5.65125 | 23988 ft | 326 kts | 247° |
| 2026-05-03 21:27 | 49.68327 | 5.61834 | 23988 ft | 326 kts | 248° |
| 2026-05-03 21:27 | 49.67558 | 5.58545 | 23985 ft | 326 kts | 248° |
| 2026-05-03 21:28 | 49.66786 | 5.55253 | 23985 ft | 326 kts | 247° |
| 2026-05-03 21:28 | 49.66014 | 5.51968 | 23985 ft | 326 kts | 247° |
| 2026-05-03 21:28 | 49.65502 | 5.49790 | 23986 ft | 326 kts | 247° |
| 2026-05-03 21:28 | 49.64477 | 5.45438 | 23988 ft | 326 kts | 247° |
| 2026-05-03 21:29 | 49.63954 | 5.43220 | 23989 ft | 326 kts | 247° |
| 2026-05-03 21:29 | 49.62918 | 5.38824 | 23997 ft | 326 kts | 248° |
| 2026-05-03 21:29 | 49.62161 | 5.35575 | 23987 ft | 326 kts | 248° |
| 2026-05-03 21:29 | 49.61664 | 5.33338 | 23984 ft | 327 kts | 249° |
| 2026-05-03 21:30 | 49.60950 | 5.30011 | 23981 ft | 327 kts | 249° |
| 2026-05-03 21:30 | 49.60248 | 5.26677 | 23980 ft | 327 kts | 249° |
| 2026-05-03 21:30 | 49.59557 | 5.23332 | 23979 ft | 328 kts | 251° |
| 2026-05-03 21:30 | 49.59177 | 5.19855 | 23976 ft | 332 kts | 263° |
| 2026-05-03 21:31 | 49.59192 | 5.16287 | 23977 ft | 333 kts | 267° |
| 2026-05-03 21:31 | 49.59233 | 5.12715 | 23978 ft | 333 kts | 266° |
| 2026-05-03 21:31 | 49.59266 | 5.09141 | 23978 ft | 334 kts | 266° |
| 2026-05-03 21:31 | 49.59292 | 5.05566 | 23978 ft | 334 kts | 266° |
| 2026-05-03 21:32 | 49.59314 | 5.01991 | 23978 ft | 334 kts | 266° |
| 2026-05-03 21:32 | 49.59338 | 4.98416 | 23979 ft | 334 kts | 266° |
| 2026-05-03 21:32 | 49.59364 | 4.94839 | 23979 ft | 334 kts | 266° |
| 2026-05-03 21:32 | 49.59388 | 4.91264 | 23997 ft | 334 kts | 267° |
| 2026-05-03 21:33 | 49.59411 | 4.87686 | 23995 ft | 334 kts | 267° |
| 2026-05-03 21:33 | 49.59434 | 4.84162 | 23989 ft | 333 kts | 267° |
| 2026-05-03 21:33 | 49.59457 | 4.80591 | 23988 ft | 333 kts | 266° |
| 2026-05-03 21:33 | 49.59477 | 4.77022 | 23986 ft | 333 kts | 266° |
| 2026-05-03 21:34 | 49.59498 | 4.73453 | 23987 ft | 333 kts | 266° |
| 2026-05-03 21:34 | 49.59517 | 4.69882 | 23987 ft | 333 kts | 266° |
| 2026-05-03 21:34 | 49.59533 | 4.66313 | 23980 ft | 333 kts | 266° |
| 2026-05-03 21:34 | 49.59552 | 4.62746 | 23979 ft | 333 kts | 266° |
| 2026-05-03 21:35 | 49.59569 | 4.59178 | 23983 ft | 333 kts | 266° |
| 2026-05-03 21:35 | 49.59583 | 4.55611 | 23977 ft | 333 kts | 266° |
| 2026-05-03 21:35 | 49.59595 | 4.52029 | 23750 ft | 334 kts | 266° |
| 2026-05-03 21:35 | 49.59608 | 4.48458 | 23517 ft | 333 kts | 266° |
| 2026-05-03 21:36 | 49.59620 | 4.44924 | 23249 ft | 326 kts | 266° |
| 2026-05-03 21:36 | 49.59633 | 4.41458 | 22953 ft | 320 kts | 266° |
| 2026-05-03 21:36 | 49.59644 | 4.38054 | 22562 ft | 316 kts | 266° |
| 2026-05-03 21:36 | 49.59654 | 4.34692 | 22170 ft | 311 kts | 266° |
| 2026-05-03 21:37 | 49.59663 | 4.31375 | 21785 ft | 308 kts | 266° |
| 2026-05-03 21:37 | 49.59670 | 4.28093 | 21406 ft | 305 kts | 266° |
| 2026-05-03 21:37 | 49.59677 | 4.24840 | 21031 ft | 302 kts | 266° |
| 2026-05-03 21:37 | 49.59679 | 4.21619 | 20663 ft | 299 kts | 266° |
| 2026-05-03 21:38 | 49.59674 | 4.18421 | 20297 ft | 298 kts | 266° |
| 2026-05-03 21:38 | 49.59669 | 4.15241 | 19929 ft | 296 kts | 266° |
| 2026-05-03 21:38 | 49.59668 | 4.12075 | 19562 ft | 295 kts | 266° |
| 2026-05-03 21:38 | 49.59589 | 4.08941 | 19201 ft | 291 kts | 258° |
| 2026-05-03 21:39 | 49.59098 | 4.05955 | 18842 ft | 286 kts | 246° |
| 2026-05-03 21:39 | 49.58203 | 4.03229 | 18469 ft | 285 kts | 236° |
| 2026-05-03 21:39 | 49.57122 | 4.00672 | 18067 ft | 285 kts | 236° |
| 2026-05-03 21:39 | 49.56042 | 3.98110 | 17675 ft | 284 kts | 236° |
| 2026-05-03 21:40 | 49.54984 | 3.95595 | 17308 ft | 283 kts | 236° |
| 2026-05-03 21:40 | 49.53915 | 3.93055 | 16938 ft | 282 kts | 236° |
| 2026-05-03 21:40 | 49.52847 | 3.90522 | 16578 ft | 281 kts | 236° |
| 2026-05-03 21:40 | 49.51783 | 3.87998 | 16220 ft | 281 kts | 236° |
| 2026-05-03 21:41 | 49.50718 | 3.85482 | 15864 ft | 281 kts | 236° |
| 2026-05-03 21:41 | 49.49653 | 3.82967 | 15514 ft | 280 kts | 236° |
| 2026-05-03 21:41 | 49.48591 | 3.80457 | 15163 ft | 280 kts | 236° |
| 2026-05-03 21:41 | 49.47602 | 3.77873 | 14807 ft | 281 kts | 244° |
| 2026-05-03 21:42 | 49.46997 | 3.75005 | 14445 ft | 284 kts | 253° |
| 2026-05-03 21:42 | 49.46512 | 3.72063 | 14077 ft | 284 kts | 253° |
| 2026-05-03 21:42 | 49.46018 | 3.69114 | 13705 ft | 285 kts | 253° |
| 2026-05-03 21:42 | 49.45519 | 3.66168 | 13309 ft | 285 kts | 253° |
| 2026-05-03 21:43 | 49.45019 | 3.63232 | 12935 ft | 283 kts | 253° |
| 2026-05-03 21:43 | 49.44523 | 3.60309 | 12769 ft | 284 kts | 253° |
| 2026-05-03 21:43 | 49.44026 | 3.57365 | 12506 ft | 284 kts | 253° |
| 2026-05-03 21:43 | 49.43531 | 3.54432 | 12260 ft | 284 kts | 253° |
| 2026-05-03 21:44 | 49.43034 | 3.51502 | 11998 ft | 283 kts | 253° |
| 2026-05-03 21:44 | 49.42506 | 3.48602 | 11721 ft | 280 kts | 248° |
| 2026-05-03 21:44 | 49.41596 | 3.45984 | 11469 ft | 278 kts | 233° |
| 2026-05-03 21:44 | 49.40267 | 3.43845 | 11217 ft | 277 kts | 218° |
| 2026-05-03 21:45 | 49.38643 | 3.42266 | 10968 ft | 277 kts | 210° |
| 2026-05-03 21:45 | 49.36967 | 3.40820 | 10725 ft | 276 kts | 210° |
| 2026-05-03 21:45 | 49.35296 | 3.39381 | 10439 ft | 275 kts | 210° |
| 2026-05-03 21:45 | 49.33634 | 3.37951 | 10067 ft | 273 kts | 210° |
| 2026-05-03 21:46 | 49.31981 | 3.36528 | 9688 ft | 272 kts | 210° |
| 2026-05-03 21:46 | 49.30335 | 3.35109 | 9298 ft | 270 kts | 210° |
| 2026-05-03 21:46 | 49.28701 | 3.33696 | 8898 ft | 269 kts | 210° |
| 2026-05-03 21:46 | 49.27080 | 3.32282 | 8505 ft | 267 kts | 210° |
| 2026-05-03 21:47 | 49.25473 | 3.30880 | 8102 ft | 265 kts | 210° |
| 2026-05-03 21:47 | 49.23874 | 3.29489 | 7720 ft | 263 kts | 210° |
| 2026-05-03 21:47 | 49.22289 | 3.28112 | 7316 ft | 261 kts | 210° |
| 2026-05-03 21:47 | 49.20713 | 3.26744 | 6932 ft | 260 kts | 210° |
| 2026-05-03 21:48 | 49.19146 | 3.25385 | 6518 ft | 258 kts | 210° |
| 2026-05-03 21:48 | 49.17755 | 3.23698 | 6116 ft | 256 kts | 229° |
| 2026-05-03 21:48 | 49.16653 | 3.21581 | 5688 ft | 254 kts | 232° |
| 2026-05-03 21:48 | 49.15582 | 3.19438 | 5250 ft | 253 kts | 232° |
| 2026-05-03 21:49 | 49.14524 | 3.17308 | 5002 ft | 251 kts | 232° |
| 2026-05-03 21:49 | 49.13466 | 3.15180 | 4994 ft | 252 kts | 232° |
| 2026-05-03 21:49 | 49.12404 | 3.13043 | 4999 ft | 253 kts | 232° |
| 2026-05-03 21:49 | 49.11341 | 3.10906 | 5000 ft | 251 kts | 232° |
| 2026-05-03 21:50 | 49.10327 | 3.08856 | 4999 ft | 232 kts | 232° |
| 2026-05-03 21:50 | 49.09388 | 3.06966 | 4998 ft | 215 kts | 232° |
| 2026-05-03 21:50 | 49.08517 | 3.05215 | 4996 ft | 200 kts | 232° |
| 2026-05-03 21:50 | 49.07679 | 3.03536 | 4997 ft | 199 kts | 232° |
| 2026-05-03 21:51 | 49.06841 | 3.01860 | 5000 ft | 198 kts | 232° |
| 2026-05-03 21:51 | 49.06020 | 3.00212 | 5000 ft | 192 kts | 232° |
| 2026-05-03 21:51 | 49.05221 | 2.98589 | 5001 ft | 191 kts | 235° |
| 2026-05-03 21:51 | 49.04753 | 2.96703 | 5002 ft | 193 kts | 260° |
| 2026-05-03 21:52 | 49.04646 | 2.94692 | 4998 ft | 186 kts | 263° |
| 2026-05-03 21:52 | 49.04554 | 2.92748 | 4997 ft | 180 kts | 263° |
| 2026-05-03 21:52 | 49.04463 | 2.90901 | 4849 ft | 173 kts | 263° |
| 2026-05-03 21:52 | 49.04373 | 2.89093 | 4637 ft | 169 kts | 263° |
| 2026-05-03 21:53 | 49.04284 | 2.87343 | 4419 ft | 167 kts | 263° |
| 2026-05-03 21:53 | 49.04196 | 2.85596 | 4193 ft | 164 kts | 263° |
| 2026-05-03 21:53 | 49.04106 | 2.83828 | 3976 ft | 168 kts | 263° |
| 2026-05-03 21:53 | 49.04015 | 2.82049 | 3751 ft | 169 kts | 263° |
| 2026-05-03 21:54 | 49.03925 | 2.80268 | 3528 ft | 168 kts | 263° |
| 2026-05-03 21:54 | 49.03834 | 2.78493 | 3305 ft | 168 kts | 263° |
| 2026-05-03 21:54 | 49.03743 | 2.76724 | 3082 ft | 167 kts | 263° |
| 2026-05-03 21:54 | 49.03653 | 2.74960 | 2857 ft | 167 kts | 263° |
| 2026-05-03 21:55 | 49.03563 | 2.73227 | 2633 ft | 166 kts | 263° |
| 2026-05-03 21:55 | 49.03473 | 2.71493 | 2415 ft | 163 kts | 263° |
| 2026-05-03 21:55 | 49.03384 | 2.69766 | 2192 ft | 159 kts | 263° |
| 2026-05-03 21:55 | 49.03300 | 2.68154 | 1990 ft | 150 kts | 263° |
| 2026-05-03 21:56 | 49.03221 | 2.66624 | 1794 ft | 140 kts | 263° |
| 2026-05-03 21:56 | 49.03146 | 2.65192 | 1614 ft | 133 kts | 262° |
| 2026-05-03 21:56 | 49.03073 | 2.63807 | 1443 ft | 130 kts | 263° |
| 2026-05-03 21:56 | 49.03000 | 2.62434 | 1263 ft | 130 kts | 263° |
| 2026-05-03 21:57 | 49.02928 | 2.61058 | 1082 ft | 131 kts | 263° |
| 2026-05-03 21:57 | 49.02855 | 2.59669 | 901 ft | 132 kts | 263° |
| 2026-05-03 21:57 | 49.02786 | 2.58264 | 702 ft | 133 kts | 263° |
| 2026-05-03 21:57 | 49.02707 | 2.56861 | 522 ft | 133 kts | 262° |
| 2026-05-03 21:58 | 49.02635 | 2.55463 | 362 ft | 131 kts | 261° |
| 2026-05-03 21:58 | 49.02569 | 2.54284 | 354 ft | 81 kts | 265° |
| 2026-05-03 21:58 | 49.02531 | 2.53631 | 357 ft | 43 kts | 264° |
| 2026-05-03 21:58 | 49.02441 | 2.53325 | 361 ft | 23 kts | 235° |
| 2026-05-03 21:59 | 49.02369 | 2.53164 | 360 ft | 18 kts | 235° |
| 2026-05-03 21:59 | 49.02345 | 2.53113 | 355 ft | 0 kts | 235° |
| 2026-05-03 21:59 | 49.02342 | 2.53104 | 355 ft | 3 kts | 235° |
| 2026-05-03 21:59 | 49.02309 | 2.53049 | 355 ft | 10 kts | 220° |
| 2026-05-03 22:00 | 49.02226 | 2.53003 | 355 ft | 15 kts | 184° |
| 2026-05-03 22:00 | 49.02120 | 2.53012 | 357 ft | 16 kts | 174° |
| 2026-05-03 22:00 | 49.02002 | 2.53028 | 355 ft | 18 kts | 175° |
| 2026-05-03 22:00 | 49.01892 | 2.53043 | 357 ft | 15 kts | 172° |
| 2026-05-03 22:01 | 49.01845 | 2.53148 | 361 ft | 14 kts | 87° |
| 2026-05-03 22:01 | 49.01851 | 2.53302 | 355 ft | 15 kts | 86° |
| 2026-05-03 22:01 | 49.01862 | 2.53465 | 357 ft | 13 kts | 83° |
| 2026-05-03 22:01 | 49.01864 | 2.53490 | 360 ft | 0 kts | 83° |
| 2026-05-03 22:02 | 49.01864 | 2.53510 | 355 ft | 5 kts | 93° |
| 2026-05-03 22:02 | 49.01828 | 2.53567 | 355 ft | 11 kts | 162° |
| 2026-05-03 22:02 | 49.01736 | 2.53585 | 355 ft | 15 kts | 178° |
| 2026-05-03 22:02 | 49.01638 | 2.53591 | 355 ft | 14 kts | 175° |
| 2026-05-03 22:03 | 49.01575 | 2.53601 | 355 ft | 10 kts | 173° |
| 2026-05-03 22:03 | 49.01564 | 2.53673 | 355 ft | 8 kts | 75° |
| 2026-05-03 22:03 | 49.01550 | 2.53720 | 359 ft | 5 kts | 146° |
| 2026-05-03 22:03 | 49.01512 | 2.53748 | 361 ft | 6 kts | 156° |
| 2026-05-03 22:04 | 49.01497 | 2.53758 | 356 ft | 0 kts | 156° |